sensor_id;sensor_type;location;lat;lon;timestamp;P1;durP1;ratioP1;P2;durP2;ratioP2
78581;SDS011;67878;46.242;5.974;2023-03-21T00:00:25;2.83;;;2.22;;
78581;SDS011;67878;46.242;5.974;2023-03-21T00:02:51;4.63;;;2.30;;
78581;SDS011;67878;46.242;5.974;2023-03-21T00:05:16;4.35;;;1.90;;
78581;SDS011;67878;46.242;5.974;2023-03-21T00:07:44;3.20;;;1.90;;
78581;SDS011;67878;46.242;5.974;2023-03-21T00:10:10;3.17;;;1.88;;
78581;SDS011;67878;46.242;5.974;2023-03-21T00:12:36;3.70;;;2.13;;
78581;SDS011;67878;46.242;5.974;2023-03-21T00:15:06;2.88;;;1.92;;
78581;SDS011;67878;46.242;5.974;2023-03-21T00:17:32;3.20;;;1.77;;
78581;SDS011;67878;46.242;5.974;2023-03-21T00:19:58;3.42;;;2.35;;
78581;SDS011;67878;46.242;5.974;2023-03-21T00:22:24;3.20;;;2.15;;
78581;SDS011;67878;46.242;5.974;2023-03-21T00:24:51;2.47;;;1.50;;
78581;SDS011;67878;46.242;5.974;2023-03-21T00:27:20;3.22;;;1.95;;
78581;SDS011;67878;46.242;5.974;2023-03-21T00:29:46;3.78;;;2.00;;
78581;SDS011;67878;46.242;5.974;2023-03-21T00:32:16;3.15;;;1.80;;
78581;SDS011;67878;46.242;5.974;2023-03-21T00:34:42;3.83;;;2.00;;
78581;SDS011;67878;46.242;5.974;2023-03-21T00:37:09;2.95;;;1.83;;
78581;SDS011;67878;46.242;5.974;2023-03-21T00:39:37;2.63;;;1.67;;
78581;SDS011;67878;46.242;5.974;2023-03-21T00:42:03;2.00;;;1.70;;
78581;SDS011;67878;46.242;5.974;2023-03-21T00:44:29;3.60;;;2.00;;
78581;SDS011;67878;46.242;5.974;2023-03-21T00:47:00;2.60;;;1.73;;
78581;SDS011;67878;46.242;5.974;2023-03-21T00:49:29;2.05;;;1.70;;
78581;SDS011;67878;46.242;5.974;2023-03-21T00:52:01;3.65;;;1.42;;
78581;SDS011;67878;46.242;5.974;2023-03-21T00:54:31;2.53;;;1.58;;
78581;SDS011;67878;46.242;5.974;2023-03-21T00:56:57;2.65;;;1.85;;
78581;SDS011;67878;46.242;5.974;2023-03-21T00:59:23;2.17;;;1.40;;
78581;SDS011;67878;46.242;5.974;2023-03-21T01:01:48;2.25;;;1.55;;
78581;SDS011;67878;46.242;5.974;2023-03-21T01:04:14;3.30;;;1.70;;
78581;SDS011;67878;46.242;5.974;2023-03-21T01:06:41;2.63;;;1.70;;
78581;SDS011;67878;46.242;5.974;2023-03-21T01:09:15;2.30;;;1.52;;
78581;SDS011;67878;46.242;5.974;2023-03-21T01:11:42;2.22;;;1.90;;
78581;SDS011;67878;46.242;5.974;2023-03-21T01:14:08;2.72;;;1.60;;
78581;SDS011;67878;46.242;5.974;2023-03-21T01:16:34;2.55;;;1.35;;
78581;SDS011;67878;46.242;5.974;2023-03-21T01:19:00;2.17;;;1.50;;
78581;SDS011;67878;46.242;5.974;2023-03-21T01:21:27;2.63;;;1.45;;
78581;SDS011;67878;46.242;5.974;2023-03-21T01:23:52;2.28;;;1.60;;
78581;SDS011;67878;46.242;5.974;2023-03-21T01:26:18;1.95;;;1.60;;
78581;SDS011;67878;46.242;5.974;2023-03-21T01:28:44;2.03;;;1.60;;
78581;SDS011;67878;46.242;5.974;2023-03-21T01:31:11;2.75;;;1.55;;
78581;SDS011;67878;46.242;5.974;2023-03-21T01:33:38;2.58;;;1.65;;
78581;SDS011;67878;46.242;5.974;2023-03-21T01:36:04;2.50;;;1.73;;
78581;SDS011;67878;46.242;5.974;2023-03-21T01:38:31;3.05;;;1.45;;
78581;SDS011;67878;46.242;5.974;2023-03-21T01:40:58;3.60;;;1.45;;
78581;SDS011;67878;46.242;5.974;2023-03-21T01:43:30;2.10;;;1.23;;
78581;SDS011;67878;46.242;5.974;2023-03-21T01:48:45;1.83;;;1.20;;
78581;SDS011;67878;46.242;5.974;2023-03-21T01:51:13;2.63;;;1.63;;
78581;SDS011;67878;46.242;5.974;2023-03-21T01:53:38;1.85;;;1.30;;
78581;SDS011;67878;46.242;5.974;2023-03-21T01:56:07;1.80;;;1.20;;
78581;SDS011;67878;46.242;5.974;2023-03-21T01:58:38;2.28;;;1.40;;
78581;SDS011;67878;46.242;5.974;2023-03-21T02:01:05;2.15;;;1.13;;
78581;SDS011;67878;46.242;5.974;2023-03-21T02:03:31;3.47;;;1.77;;
78581;SDS011;67878;46.242;5.974;2023-03-21T02:06:06;2.40;;;1.40;;
78581;SDS011;67878;46.242;5.974;2023-03-21T02:08:35;1.75;;;1.23;;
78581;SDS011;67878;46.242;5.974;2023-03-21T02:11:01;1.98;;;1.30;;
78581;SDS011;67878;46.242;5.974;2023-03-21T02:13:28;2.30;;;1.35;;
78581;SDS011;67878;46.242;5.974;2023-03-21T02:16:08;1.25;;;1.10;;
78581;SDS011;67878;46.242;5.974;2023-03-21T02:18:41;1.40;;;1.30;;
78581;SDS011;67878;46.242;5.974;2023-03-21T02:26:37;1.20;;;1.08;;
78581;SDS011;67878;46.242;5.974;2023-03-21T02:34:38;1.80;;;1.13;;
78581;SDS011;67878;46.242;5.974;2023-03-21T02:37:44;1.75;;;1.00;;
78581;SDS011;67878;46.242;5.974;2023-03-21T02:40:22;3.78;;;1.33;;
78581;SDS011;67878;46.242;5.974;2023-03-21T02:43:03;2.42;;;1.20;;
78581;SDS011;67878;46.242;5.974;2023-03-21T02:45:49;1.92;;;1.20;;
78581;SDS011;67878;46.242;5.974;2023-03-21T02:48:21;1.40;;;1.20;;
78581;SDS011;67878;46.242;5.974;2023-03-21T02:50:51;1.45;;;0.88;;
78581;SDS011;67878;46.242;5.974;2023-03-21T02:53:21;1.70;;;1.10;;
78581;SDS011;67878;46.242;5.974;2023-03-21T02:55:48;2.00;;;1.30;;
78581;SDS011;67878;46.242;5.974;2023-03-21T02:58:16;1.50;;;0.80;;
78581;SDS011;67878;46.242;5.974;2023-03-21T03:03:10;1.45;;;0.95;;
78581;SDS011;67878;46.242;5.974;2023-03-21T03:05:38;1.75;;;1.00;;
78581;SDS011;67878;46.242;5.974;2023-03-21T03:16:45;3.17;;;1.10;;
78581;SDS011;67878;46.242;5.974;2023-03-21T03:19:21;2.25;;;1.05;;
78581;SDS011;67878;46.242;5.974;2023-03-21T03:21:58;1.30;;;1.20;;
78581;SDS011;67878;46.242;5.974;2023-03-21T03:29:30;3.08;;;1.42;;
78581;SDS011;67878;46.242;5.974;2023-03-21T03:32:02;1.67;;;1.00;;
78581;SDS011;67878;46.242;5.974;2023-03-21T03:34:32;1.52;;;1.02;;
78581;SDS011;67878;46.242;5.974;2023-03-21T03:37:09;1.20;;;0.77;;
78581;SDS011;67878;46.242;5.974;2023-03-21T03:39:40;1.75;;;1.17;;
78581;SDS011;67878;46.242;5.974;2023-03-21T03:42:34;1.92;;;1.15;;
78581;SDS011;67878;46.242;5.974;2023-03-21T03:45:08;1.40;;;1.10;;
78581;SDS011;67878;46.242;5.974;2023-03-21T03:47:49;1.13;;;0.82;;
78581;SDS011;67878;46.242;5.974;2023-03-21T03:51:00;1.40;;;0.80;;
78581;SDS011;67878;46.242;5.974;2023-03-21T03:53:43;1.20;;;0.82;;
78581;SDS011;67878;46.242;5.974;2023-03-21T03:56:19;1.30;;;0.80;;
78581;SDS011;67878;46.242;5.974;2023-03-21T03:58:48;2.17;;;1.00;;
78581;SDS011;67878;46.242;5.974;2023-03-21T04:01:15;0.85;;;0.80;;
78581;SDS011;67878;46.242;5.974;2023-03-21T04:03:44;1.02;;;0.80;;
78581;SDS011;67878;46.242;5.974;2023-03-21T04:06:13;1.65;;;0.90;;
78581;SDS011;67878;46.242;5.974;2023-03-21T04:08:44;1.23;;;0.80;;
78581;SDS011;67878;46.242;5.974;2023-03-21T04:11:14;1.52;;;1.00;;
78581;SDS011;67878;46.242;5.974;2023-03-21T04:13:43;1.42;;;0.93;;
78581;SDS011;67878;46.242;5.974;2023-03-21T04:16:10;1.60;;;0.75;;
78581;SDS011;67878;46.242;5.974;2023-03-21T04:18:37;1.63;;;0.75;;
78581;SDS011;67878;46.242;5.974;2023-03-21T04:21:07;1.25;;;0.70;;
78581;SDS011;67878;46.242;5.974;2023-03-21T04:23:37;0.77;;;0.70;;
78581;SDS011;67878;46.242;5.974;2023-03-21T04:26:03;2.10;;;1.20;;
78581;SDS011;67878;46.242;5.974;2023-03-21T04:28:30;1.65;;;0.85;;
78581;SDS011;67878;46.242;5.974;2023-03-21T04:30:58;1.20;;;0.90;;
78581;SDS011;67878;46.242;5.974;2023-03-21T04:33:24;0.80;;;0.63;;
78581;SDS011;67878;46.242;5.974;2023-03-21T04:35:52;1.38;;;0.90;;
78581;SDS011;67878;46.242;5.974;2023-03-21T04:38:27;0.90;;;0.80;;
78581;SDS011;67878;46.242;5.974;2023-03-21T04:40:55;1.40;;;0.90;;
78581;SDS011;67878;46.242;5.974;2023-03-21T04:43:22;1.70;;;0.70;;
78581;SDS011;67878;46.242;5.974;2023-03-21T04:45:49;1.38;;;0.60;;
78581;SDS011;67878;46.242;5.974;2023-03-21T04:48:16;1.10;;;0.90;;
78581;SDS011;67878;46.242;5.974;2023-03-21T04:50:43;1.13;;;0.80;;
78581;SDS011;67878;46.242;5.974;2023-03-21T04:53:09;0.82;;;0.80;;
78581;SDS011;67878;46.242;5.974;2023-03-21T04:55:35;0.90;;;0.80;;
78581;SDS011;67878;46.242;5.974;2023-03-21T04:58:01;1.45;;;0.80;;
78581;SDS011;67878;46.242;5.974;2023-03-21T05:00:27;1.00;;;0.70;;
78581;SDS011;67878;46.242;5.974;2023-03-21T05:02:53;1.50;;;0.85;;
78581;SDS011;67878;46.242;5.974;2023-03-21T05:05:19;1.42;;;0.60;;
78581;SDS011;67878;46.242;5.974;2023-03-21T05:07:46;1.02;;;0.70;;
78581;SDS011;67878;46.242;5.974;2023-03-21T05:10:13;0.68;;;0.63;;
78581;SDS011;67878;46.242;5.974;2023-03-21T05:12:39;1.48;;;0.65;;
78581;SDS011;67878;46.242;5.974;2023-03-21T05:15:06;1.48;;;0.60;;
78581;SDS011;67878;46.242;5.974;2023-03-21T05:17:35;1.52;;;0.70;;
78581;SDS011;67878;46.242;5.974;2023-03-21T05:20:03;1.20;;;0.80;;
78581;SDS011;67878;46.242;5.974;2023-03-21T05:22:34;0.88;;;0.88;;
78581;SDS011;67878;46.242;5.974;2023-03-21T05:25:07;1.20;;;0.80;;
78581;SDS011;67878;46.242;5.974;2023-03-21T05:27:38;1.42;;;0.80;;
78581;SDS011;67878;46.242;5.974;2023-03-21T05:30:15;0.75;;;0.65;;
78581;SDS011;67878;46.242;5.974;2023-03-21T05:32:43;0.95;;;0.85;;
78581;SDS011;67878;46.242;5.974;2023-03-21T05:35:12;1.55;;;0.80;;
78581;SDS011;67878;46.242;5.974;2023-03-21T05:37:40;1.20;;;0.93;;
78581;SDS011;67878;46.242;5.974;2023-03-21T05:40:07;0.93;;;0.60;;
78581;SDS011;67878;46.242;5.974;2023-03-21T05:42:34;1.08;;;0.80;;
78581;SDS011;67878;46.242;5.974;2023-03-21T05:44:59;1.88;;;0.80;;
78581;SDS011;67878;46.242;5.974;2023-03-21T05:47:25;0.85;;;0.73;;
78581;SDS011;67878;46.242;5.974;2023-03-21T05:49:51;1.27;;;0.77;;
78581;SDS011;67878;46.242;5.974;2023-03-21T05:52:17;1.77;;;0.80;;
78581;SDS011;67878;46.242;5.974;2023-03-21T05:54:43;1.05;;;0.95;;
78581;SDS011;67878;46.242;5.974;2023-03-21T05:57:09;1.63;;;0.82;;
78581;SDS011;67878;46.242;5.974;2023-03-21T05:59:36;0.80;;;0.70;;
78581;SDS011;67878;46.242;5.974;2023-03-21T06:02:05;1.60;;;0.80;;
78581;SDS011;67878;46.242;5.974;2023-03-21T06:04:31;1.45;;;0.70;;
78581;SDS011;67878;46.242;5.974;2023-03-21T06:06:57;1.60;;;0.80;;
78581;SDS011;67878;46.242;5.974;2023-03-21T06:09:24;2.13;;;1.00;;
78581;SDS011;67878;46.242;5.974;2023-03-21T06:11:51;0.70;;;0.70;;
78581;SDS011;67878;46.242;5.974;2023-03-21T06:14:19;1.42;;;0.60;;
78581;SDS011;67878;46.242;5.974;2023-03-21T06:16:45;1.45;;;0.75;;
78581;SDS011;67878;46.242;5.974;2023-03-21T06:19:11;0.77;;;0.70;;
78581;SDS011;67878;46.242;5.974;2023-03-21T06:21:37;1.15;;;0.70;;
78581;SDS011;67878;46.242;5.974;2023-03-21T06:24:05;1.15;;;0.60;;
78581;SDS011;67878;46.242;5.974;2023-03-21T06:26:30;1.42;;;0.70;;
78581;SDS011;67878;46.242;5.974;2023-03-21T06:28:56;0.70;;;0.60;;
78581;SDS011;67878;46.242;5.974;2023-03-21T06:31:22;0.70;;;0.60;;
78581;SDS011;67878;46.242;5.974;2023-03-21T06:33:49;1.48;;;0.80;;
78581;SDS011;67878;46.242;5.974;2023-03-21T06:36:16;0.77;;;0.60;;
78581;SDS011;67878;46.242;5.974;2023-03-21T06:38:41;1.27;;;0.70;;
78581;SDS011;67878;46.242;5.974;2023-03-21T06:41:07;1.42;;;0.82;;
78581;SDS011;67878;46.242;5.974;2023-03-21T06:43:34;1.10;;;0.80;;
78581;SDS011;67878;46.242;5.974;2023-03-21T06:46:01;0.70;;;0.63;;
78581;SDS011;67878;46.242;5.974;2023-03-21T06:48:27;1.33;;;0.70;;
78581;SDS011;67878;46.242;5.974;2023-03-21T06:50:53;1.55;;;0.77;;
78581;SDS011;67878;46.242;5.974;2023-03-21T06:53:21;1.05;;;0.60;;
78581;SDS011;67878;46.242;5.974;2023-03-21T06:55:55;2.53;;;1.05;;
78581;SDS011;67878;46.242;5.974;2023-03-21T06:58:23;1.63;;;0.70;;
78581;SDS011;67878;46.242;5.974;2023-03-21T07:00:49;2.05;;;0.90;;
78581;SDS011;67878;46.242;5.974;2023-03-21T07:03:15;0.98;;;0.77;;
78581;SDS011;67878;46.242;5.974;2023-03-21T07:05:42;1.50;;;0.80;;
78581;SDS011;67878;46.242;5.974;2023-03-21T07:08:10;3.45;;;1.08;;
78581;SDS011;67878;46.242;5.974;2023-03-21T07:10:39;2.38;;;1.13;;
78581;SDS011;67878;46.242;5.974;2023-03-21T07:13:08;2.10;;;1.00;;
78581;SDS011;67878;46.242;5.974;2023-03-21T07:15:42;5.07;;;1.30;;
78581;SDS011;67878;46.242;5.974;2023-03-21T07:18:09;3.80;;;0.93;;
78581;SDS011;67878;46.242;5.974;2023-03-21T07:20:38;3.72;;;1.08;;
78581;SDS011;67878;46.242;5.974;2023-03-21T07:23:03;2.90;;;0.98;;
78581;SDS011;67878;46.242;5.974;2023-03-21T07:25:28;2.80;;;1.00;;
78581;SDS011;67878;46.242;5.974;2023-03-21T07:27:54;3.78;;;0.80;;
78581;SDS011;67878;46.242;5.974;2023-03-21T07:30:19;1.40;;;0.80;;
78581;SDS011;67878;46.242;5.974;2023-03-21T07:32:45;1.67;;;1.13;;
78581;SDS011;67878;46.242;5.974;2023-03-21T07:35:13;1.60;;;0.90;;
78581;SDS011;67878;46.242;5.974;2023-03-21T07:37:40;1.00;;;0.70;;
78581;SDS011;67878;46.242;5.974;2023-03-21T07:40:07;1.95;;;0.85;;
78581;SDS011;67878;46.242;5.974;2023-03-21T07:42:41;1.83;;;0.98;;
78581;SDS011;67878;46.242;5.974;2023-03-21T07:45:07;2.00;;;0.90;;
78581;SDS011;67878;46.242;5.974;2023-03-21T07:47:33;1.38;;;0.80;;
78581;SDS011;67878;46.242;5.974;2023-03-21T07:49:59;3.20;;;1.05;;
78581;SDS011;67878;46.242;5.974;2023-03-21T07:52:25;1.83;;;0.75;;
78581;SDS011;67878;46.242;5.974;2023-03-21T07:54:51;2.35;;;1.20;;
78581;SDS011;67878;46.242;5.974;2023-03-21T07:57:19;2.63;;;1.05;;
78581;SDS011;67878;46.242;5.974;2023-03-21T07:59:47;2.58;;;1.23;;
78581;SDS011;67878;46.242;5.974;2023-03-21T08:02:15;2.50;;;1.20;;
78581;SDS011;67878;46.242;5.974;2023-03-21T08:04:44;1.73;;;0.90;;
78581;SDS011;67878;46.242;5.974;2023-03-21T08:07:11;2.72;;;1.02;;
78581;SDS011;67878;46.242;5.974;2023-03-21T08:09:38;2.13;;;1.05;;
78581;SDS011;67878;46.242;5.974;2023-03-21T08:12:05;4.20;;;1.20;;
78581;SDS011;67878;46.242;5.974;2023-03-21T08:14:32;2.67;;;1.20;;
78581;SDS011;67878;46.242;5.974;2023-03-21T08:16:59;3.10;;;1.20;;
78581;SDS011;67878;46.242;5.974;2023-03-21T08:19:26;1.40;;;0.95;;
78581;SDS011;67878;46.242;5.974;2023-03-21T08:21:52;3.95;;;1.02;;
78581;SDS011;67878;46.242;5.974;2023-03-21T08:24:17;2.42;;;1.10;;
78581;SDS011;67878;46.242;5.974;2023-03-21T08:26:43;3.17;;;0.93;;
78581;SDS011;67878;46.242;5.974;2023-03-21T08:29:10;1.83;;;1.10;;
78581;SDS011;67878;46.242;5.974;2023-03-21T08:31:39;1.63;;;1.10;;
78581;SDS011;67878;46.242;5.974;2023-03-21T08:34:06;3.40;;;1.13;;
78581;SDS011;67878;46.242;5.974;2023-03-21T08:36:34;2.13;;;1.15;;
78581;SDS011;67878;46.242;5.974;2023-03-21T08:39:03;2.20;;;1.15;;
78581;SDS011;67878;46.242;5.974;2023-03-21T08:41:31;1.75;;;1.15;;
78581;SDS011;67878;46.242;5.974;2023-03-21T08:43:58;1.95;;;0.93;;
78581;SDS011;67878;46.242;5.974;2023-03-21T08:46:26;1.67;;;1.10;;
78581;SDS011;67878;46.242;5.974;2023-03-21T08:51:22;1.55;;;1.20;;
78581;SDS011;67878;46.242;5.974;2023-03-21T08:53:53;2.85;;;1.30;;
78581;SDS011;67878;46.242;5.974;2023-03-21T08:56:18;1.77;;;1.15;;
78581;SDS011;67878;46.242;5.974;2023-03-21T08:58:43;3.63;;;1.40;;
78581;SDS011;67878;46.242;5.974;2023-03-21T09:01:09;1.45;;;1.13;;
78581;SDS011;67878;46.242;5.974;2023-03-21T09:03:36;2.13;;;1.25;;
78581;SDS011;67878;46.242;5.974;2023-03-21T09:06:04;1.90;;;1.30;;
78581;SDS011;67878;46.242;5.974;2023-03-21T09:08:36;1.73;;;1.13;;
78581;SDS011;67878;46.242;5.974;2023-03-21T09:11:04;1.55;;;1.33;;
78581;SDS011;67878;46.242;5.974;2023-03-21T09:13:32;2.15;;;1.42;;
78581;SDS011;67878;46.242;5.974;2023-03-21T09:16:00;1.95;;;1.40;;
78581;SDS011;67878;46.242;5.974;2023-03-21T09:18:28;2.67;;;1.60;;
78581;SDS011;67878;46.242;5.974;2023-03-21T09:21:17;1.50;;;1.20;;
78581;SDS011;67878;46.242;5.974;2023-03-21T09:23:44;2.28;;;1.38;;
78581;SDS011;67878;46.242;5.974;2023-03-21T09:26:11;1.88;;;1.20;;
78581;SDS011;67878;46.242;5.974;2023-03-21T09:28:39;1.98;;;1.40;;
78581;SDS011;67878;46.242;5.974;2023-03-21T09:31:06;3.75;;;1.58;;
78581;SDS011;67878;46.242;5.974;2023-03-21T09:33:35;1.45;;;1.20;;
78581;SDS011;67878;46.242;5.974;2023-03-21T09:36:02;3.15;;;1.30;;
78581;SDS011;67878;46.242;5.974;2023-03-21T09:38:34;2.45;;;1.45;;
78581;SDS011;67878;46.242;5.974;2023-03-21T09:48:34;1.65;;;1.10;;
78581;SDS011;67878;46.242;5.974;2023-03-21T09:51:09;2.00;;;1.70;;
78581;SDS011;67878;46.242;5.974;2023-03-21T09:53:39;2.20;;;1.35;;
78581;SDS011;67878;46.242;5.974;2023-03-21T09:56:07;2.33;;;1.30;;
78581;SDS011;67878;46.242;5.974;2023-03-21T09:58:36;1.50;;;1.30;;
78581;SDS011;67878;46.242;5.974;2023-03-21T10:03:53;1.40;;;1.30;;
78581;SDS011;67878;46.242;5.974;2023-03-21T10:06:20;2.15;;;1.42;;
78581;SDS011;67878;46.242;5.974;2023-03-21T10:09:03;1.80;;;1.33;;
78581;SDS011;67878;46.242;5.974;2023-03-21T10:11:44;1.98;;;1.40;;
78581;SDS011;67878;46.242;5.974;2023-03-21T10:17:47;1.50;;;1.40;;
78581;SDS011;67878;46.242;5.974;2023-03-21T10:19:55;1.77;;;1.25;;
78581;SDS011;67878;46.242;5.974;2023-03-21T10:22:23;2.60;;;1.20;;
78581;SDS011;67878;46.242;5.974;2023-03-21T10:24:48;1.48;;;1.15;;
78581;SDS011;67878;46.242;5.974;2023-03-21T10:27:13;1.20;;;1.10;;
78581;SDS011;67878;46.242;5.974;2023-03-21T10:29:42;2.58;;;1.27;;
78581;SDS011;67878;46.242;5.974;2023-03-21T10:32:12;2.15;;;1.20;;
78581;SDS011;67878;46.242;5.974;2023-03-21T10:34:41;2.10;;;1.30;;
78581;SDS011;67878;46.242;5.974;2023-03-21T10:37:09;1.48;;;1.13;;
78581;SDS011;67878;46.242;5.974;2023-03-21T10:39:39;2.53;;;1.20;;
78581;SDS011;67878;46.242;5.974;2023-03-21T10:42:05;1.40;;;1.20;;
78581;SDS011;67878;46.242;5.974;2023-03-21T10:44:34;2.45;;;1.30;;
78581;SDS011;67878;46.242;5.974;2023-03-21T10:47:05;2.05;;;1.27;;
78581;SDS011;67878;46.242;5.974;2023-03-21T10:49:37;1.75;;;1.25;;
78581;SDS011;67878;46.242;5.974;2023-03-21T10:52:06;1.63;;;1.10;;
78581;SDS011;67878;46.242;5.974;2023-03-21T10:54:41;2.47;;;1.02;;
78581;SDS011;67878;46.242;5.974;2023-03-21T10:57:11;1.55;;;1.00;;
78581;SDS011;67878;46.242;5.974;2023-03-21T11:00:00;2.40;;;1.23;;
78581;SDS011;67878;46.242;5.974;2023-03-21T11:02:35;1.13;;;1.02;;
78581;SDS011;67878;46.242;5.974;2023-03-21T11:05:06;1.40;;;1.17;;
78581;SDS011;67878;46.242;5.974;2023-03-21T11:07:40;1.60;;;1.13;;
78581;SDS011;67878;46.242;5.974;2023-03-21T11:10:25;1.77;;;1.10;;
78581;SDS011;67878;46.242;5.974;2023-03-21T11:12:56;2.72;;;1.10;;
78581;SDS011;67878;46.242;5.974;2023-03-21T11:15:31;1.95;;;1.25;;
78581;SDS011;67878;46.242;5.974;2023-03-21T11:20:41;1.77;;;1.20;;
78581;SDS011;67878;46.242;5.974;2023-03-21T11:23:12;3.38;;;1.35;;
78581;SDS011;67878;46.242;5.974;2023-03-21T11:25:38;2.70;;;1.23;;
78581;SDS011;67878;46.242;5.974;2023-03-21T11:28:20;1.92;;;1.10;;
78581;SDS011;67878;46.242;5.974;2023-03-21T11:30:51;1.08;;;0.98;;
78581;SDS011;67878;46.242;5.974;2023-03-21T11:33:19;1.67;;;1.10;;
78581;SDS011;67878;46.242;5.974;2023-03-21T11:36:23;2.67;;;1.17;;
78581;SDS011;67878;46.242;5.974;2023-03-21T11:38:59;4.63;;;1.40;;
78581;SDS011;67878;46.242;5.974;2023-03-21T11:41:48;2.15;;;1.27;;
78581;SDS011;67878;46.242;5.974;2023-03-21T11:44:27;3.28;;;1.20;;
78581;SDS011;67878;46.242;5.974;2023-03-21T11:46:58;1.17;;;0.90;;
78581;SDS011;67878;46.242;5.974;2023-03-21T11:49:23;2.72;;;1.10;;
78581;SDS011;67878;46.242;5.974;2023-03-21T11:51:57;1.50;;;1.00;;
78581;SDS011;67878;46.242;5.974;2023-03-21T11:58:00;2.40;;;1.25;;
78581;SDS011;67878;46.242;5.974;2023-03-21T12:00:28;2.17;;;1.00;;
78581;SDS011;67878;46.242;5.974;2023-03-21T12:06:01;1.60;;;0.93;;
78581;SDS011;67878;46.242;5.974;2023-03-21T12:11:10;1.20;;;1.10;;
78581;SDS011;67878;46.242;5.974;2023-03-21T12:13:53;1.55;;;0.90;;
78581;SDS011;67878;46.242;5.974;2023-03-21T12:19:11;1.85;;;1.00;;
78581;SDS011;67878;46.242;5.974;2023-03-21T12:40:46;1.98;;;1.02;;
78581;SDS011;67878;46.242;5.974;2023-03-21T12:45:41;1.73;;;1.02;;
78581;SDS011;67878;46.242;5.974;2023-03-21T12:51:01;0.90;;;0.73;;
78581;SDS011;67878;46.242;5.974;2023-03-21T12:53:37;2.28;;;1.27;;
78581;SDS011;67878;46.242;5.974;2023-03-21T12:56:08;1.90;;;1.10;;
78581;SDS011;67878;46.242;5.974;2023-03-21T12:58:41;0.95;;;0.80;;
78581;SDS011;67878;46.242;5.974;2023-03-21T13:01:19;2.28;;;1.05;;
78581;SDS011;67878;46.242;5.974;2023-03-21T13:03:47;1.92;;;1.20;;
78581;SDS011;67878;46.242;5.974;2023-03-21T13:06:16;1.10;;;1.00;;
78581;SDS011;67878;46.242;5.974;2023-03-21T13:08:51;1.35;;;1.05;;
78581;SDS011;67878;46.242;5.974;2023-03-21T13:11:23;1.70;;;1.10;;
78581;SDS011;67878;46.242;5.974;2023-03-21T13:16:20;1.85;;;0.93;;
78581;SDS011;67878;46.242;5.974;2023-03-21T13:24:14;1.42;;;1.05;;
78581;SDS011;67878;46.242;5.974;2023-03-21T13:26:44;1.30;;;1.00;;
78581;SDS011;67878;46.242;5.974;2023-03-21T13:29:27;1.25;;;0.95;;
78581;SDS011;67878;46.242;5.974;2023-03-21T13:31:58;2.08;;;1.20;;
78581;SDS011;67878;46.242;5.974;2023-03-21T13:34:31;1.60;;;1.00;;
78581;SDS011;67878;46.242;5.974;2023-03-21T13:36:58;1.20;;;1.02;;
78581;SDS011;67878;46.242;5.974;2023-03-21T13:39:25;0.90;;;0.80;;
78581;SDS011;67878;46.242;5.974;2023-03-21T13:41:54;1.30;;;0.80;;
78581;SDS011;67878;46.242;5.974;2023-03-21T13:47:01;1.15;;;1.05;;
78581;SDS011;67878;46.242;5.974;2023-03-21T13:49:35;1.30;;;1.10;;
78581;SDS011;67878;46.242;5.974;2023-03-21T13:54:52;1.05;;;0.95;;
78581;SDS011;67878;46.242;5.974;2023-03-21T14:02:49;1.05;;;0.93;;
78581;SDS011;67878;46.242;5.974;2023-03-21T14:05:21;1.42;;;0.90;;
78581;SDS011;67878;46.242;5.974;2023-03-21T14:07:50;1.02;;;0.90;;
78581;SDS011;67878;46.242;5.974;2023-03-21T14:10:25;1.08;;;0.80;;
78581;SDS011;67878;46.242;5.974;2023-03-21T14:12:54;0.85;;;0.80;;
78581;SDS011;67878;46.242;5.974;2023-03-21T14:15:21;1.10;;;0.82;;
78581;SDS011;67878;46.242;5.974;2023-03-21T14:17:51;1.10;;;1.00;;
78581;SDS011;67878;46.242;5.974;2023-03-21T14:20:24;1.25;;;1.00;;
78581;SDS011;67878;46.242;5.974;2023-03-21T14:22:54;1.40;;;0.90;;
78581;SDS011;67878;46.242;5.974;2023-03-21T14:25:22;1.00;;;0.85;;
78581;SDS011;67878;46.242;5.974;2023-03-21T14:27:56;1.98;;;0.93;;
78581;SDS011;67878;46.242;5.974;2023-03-21T14:30:31;1.38;;;1.10;;
78581;SDS011;67878;46.242;5.974;2023-03-21T14:33:01;1.00;;;0.90;;
78581;SDS011;67878;46.242;5.974;2023-03-21T14:35:30;1.48;;;0.75;;
78581;SDS011;67878;46.242;5.974;2023-03-21T14:38:01;1.30;;;0.90;;
78581;SDS011;67878;46.242;5.974;2023-03-21T14:40:28;1.42;;;1.05;;
78581;SDS011;67878;46.242;5.974;2023-03-21T14:42:54;1.70;;;0.90;;
78581;SDS011;67878;46.242;5.974;2023-03-21T14:45:24;1.23;;;0.80;;
78581;SDS011;67878;46.242;5.974;2023-03-21T14:47:56;1.48;;;0.70;;
78581;SDS011;67878;46.242;5.974;2023-03-21T14:50:35;1.55;;;0.82;;
78581;SDS011;67878;46.242;5.974;2023-03-21T14:53:14;2.30;;;1.10;;
78581;SDS011;67878;46.242;5.974;2023-03-21T14:55:45;1.40;;;1.00;;
78581;SDS011;67878;46.242;5.974;2023-03-21T14:58:33;1.30;;;0.80;;
78581;SDS011;67878;46.242;5.974;2023-03-21T15:03:28;1.00;;;0.90;;
78581;SDS011;67878;46.242;5.974;2023-03-21T15:05:54;1.77;;;0.80;;
78581;SDS011;67878;46.242;5.974;2023-03-21T15:08:21;1.77;;;1.02;;
78581;SDS011;67878;46.242;5.974;2023-03-21T15:13:22;1.13;;;0.95;;
78581;SDS011;67878;46.242;5.974;2023-03-21T15:15:50;1.08;;;0.63;;
78581;SDS011;67878;46.242;5.974;2023-03-21T15:18:19;1.75;;;0.90;;
78581;SDS011;67878;46.242;5.974;2023-03-21T15:20:51;1.48;;;0.90;;
78581;SDS011;67878;46.242;5.974;2023-03-21T15:23:32;1.00;;;0.90;;
78581;SDS011;67878;46.242;5.974;2023-03-21T15:28:26;1.05;;;0.80;;
78581;SDS011;67878;46.242;5.974;2023-03-21T15:30:52;1.17;;;1.00;;
78581;SDS011;67878;46.242;5.974;2023-03-21T15:33:18;1.23;;;0.93;;
78581;SDS011;67878;46.242;5.974;2023-03-21T15:35:45;1.40;;;0.98;;
78581;SDS011;67878;46.242;5.974;2023-03-21T15:38:21;0.98;;;0.70;;
78581;SDS011;67878;46.242;5.974;2023-03-21T15:43:47;1.30;;;0.82;;
78581;SDS011;67878;46.242;5.974;2023-03-21T15:52:02;1.17;;;0.80;;
78581;SDS011;67878;46.242;5.974;2023-03-21T15:54:34;0.98;;;0.82;;
78581;SDS011;67878;46.242;5.974;2023-03-21T15:57:16;0.98;;;0.80;;
78581;SDS011;67878;46.242;5.974;2023-03-21T16:02:45;1.65;;;0.85;;
78581;SDS011;67878;46.242;5.974;2023-03-21T16:05:29;1.42;;;0.80;;
78581;SDS011;67878;46.242;5.974;2023-03-21T16:08:15;1.20;;;0.80;;
78581;SDS011;67878;46.242;5.974;2023-03-21T16:10:46;1.55;;;1.00;;
78581;SDS011;67878;46.242;5.974;2023-03-21T16:13:13;1.55;;;0.70;;
78581;SDS011;67878;46.242;5.974;2023-03-21T16:15:38;1.00;;;0.90;;
78581;SDS011;67878;46.242;5.974;2023-03-21T16:18:04;1.35;;;0.70;;
78581;SDS011;67878;46.242;5.974;2023-03-21T16:20:32;1.00;;;0.73;;
78581;SDS011;67878;46.242;5.974;2023-03-21T16:23:00;1.00;;;0.90;;
78581;SDS011;67878;46.242;5.974;2023-03-21T16:25:26;1.10;;;0.70;;
78581;SDS011;67878;46.242;5.974;2023-03-21T16:27:53;1.23;;;0.85;;
78581;SDS011;67878;46.242;5.974;2023-03-21T16:30:19;1.00;;;0.88;;
78581;SDS011;67878;46.242;5.974;2023-03-21T16:32:45;1.38;;;0.77;;
78581;SDS011;67878;46.242;5.974;2023-03-21T16:35:11;1.15;;;0.93;;
78581;SDS011;67878;46.242;5.974;2023-03-21T16:37:37;1.02;;;0.90;;
78581;SDS011;67878;46.242;5.974;2023-03-21T16:40:09;1.15;;;0.90;;
78581;SDS011;67878;46.242;5.974;2023-03-21T16:42:41;2.13;;;1.13;;
78581;SDS011;67878;46.242;5.974;2023-03-21T16:45:07;1.10;;;1.00;;
78581;SDS011;67878;46.242;5.974;2023-03-21T16:47:33;1.15;;;1.05;;
78581;SDS011;67878;46.242;5.974;2023-03-21T16:49:58;1.52;;;1.00;;
78581;SDS011;67878;46.242;5.974;2023-03-21T16:52:25;1.15;;;0.82;;
78581;SDS011;67878;46.242;5.974;2023-03-21T16:54:51;1.00;;;0.80;;
78581;SDS011;67878;46.242;5.974;2023-03-21T16:57:24;1.10;;;1.00;;
78581;SDS011;67878;46.242;5.974;2023-03-21T16:59:52;1.20;;;1.00;;
78581;SDS011;67878;46.242;5.974;2023-03-21T17:02:18;1.23;;;0.90;;
78581;SDS011;67878;46.242;5.974;2023-03-21T17:04:43;1.05;;;0.95;;